Moore, Indiana
Current Conditions -  °F | °C
As of 6:15 AM on Saturday 01 Nov 2014 (Local Time) from KGWB Reporting Station
Overcast Overcast  
Wind Chill: 21°   Ceiling: 2700
Heat Index: 32°   Visibility: 10mi
Dew Point: 23°   Wind: 17mph
Humidity: 69%   Direction: 360°N
Pressure: 30.25"   Gusts: 25mph
Location:  41.4294°N, 84.8751°W
Report Text: KGWB 011015Z AUTO 36015G22KT 10SM OVC027 00/M05 A3025 RMK AO2
Loading
Personal Weather Stations






























Interactive Weather Map
Tropical Storm Tracking
New forecast layout! Learn more

10-Day Weather Forecast

Advertisements
Track Severe Weather on mobile